West Ferrisburgh, Vermont
Current Conditions -  °F | °C
As of 7:55 PM on Saturday 22 Nov 2014 (Local Time) from K6B0 Reporting Station
Overcast Overcast  
Wind Chill: 30°   Ceiling: 2700
Heat Index: 38°   Visibility: 10mi
Dew Point: 18°   Wind: 15mph
Humidity: 44%   Direction: 170°S
Pressure: 30"   Gusts: 22mph
Location:  44.0804°N, 73.3324°W
Report Text: K6B0 230055Z AUTO 17013G19KT 10SM OVC027 04/M08 A3000 RMK AO2 T00351077
Loading
Personal Weather Stations






























Interactive Weather Map New forecast layout! Learn more

10-Day Weather Forecast

Advertisements
Track Severe Weather on mobile